Worthington, Iowa
Current Conditions -  °F | °C
As of 4:55 AM on Friday 19 Dec 2014 (Local Time) from KMXO Reporting Station
Haze Haze  
Wind Chill: 19°   Ceiling: 7000
Heat Index: 19°   Visibility: 6mi
Dew Point: 19°   Wind: 0mph
Humidity: 100%   Direction: NA
Pressure: 30.28"   Gusts: NA
Location:  42.4°N, 91.12°W
Report Text: KMXO 191055Z AUTO 00000KT 6SM BR OVC070 M07/M07 A3028 RMK AO2
Loading
Personal Weather Stations






























Interactive Weather Map New forecast layout! Learn more

10-Day Weather Forecast

Advertisements
Track Severe Weather on mobile